sensor_id;sensor_type;location;lat;lon;timestamp;pressure;altitude;pressure_sealevel;temperature;humidity
19526;BME280;9907;42.676;26.348;2022-10-31T00:02:21;99095.63;;;21.38;44.40
19526;BME280;9907;42.676;26.348;2022-10-31T00:04:47;99095.41;;;21.32;44.02
19526;BME280;9907;42.676;26.348;2022-10-31T00:07:12;99096.06;;;21.34;44.23
19526;BME280;9907;42.676;26.348;2022-10-31T00:09:38;99090.41;;;21.36;44.98
19526;BME280;9907;42.676;26.348;2022-10-31T00:12:03;99082.47;;;21.34;44.28
19526;BME280;9907;42.676;26.348;2022-10-31T00:14:29;99074.72;;;21.31;44.28
19526;BME280;9907;42.676;26.348;2022-10-31T00:16:54;99074.94;;;21.30;44.53
19526;BME280;9907;42.676;26.348;2022-10-31T00:19:20;99069.31;;;21.31;44.38
19526;BME280;9907;42.676;26.348;2022-10-31T00:21:45;99077.22;;;21.33;44.42
19526;BME280;9907;42.676;26.348;2022-10-31T00:24:10;99079.38;;;20.56;45.80
19526;BME280;9907;42.676;26.348;2022-10-31T00:26:36;99089.75;;;20.80;45.29
19526;BME280;9907;42.676;26.348;2022-10-31T00:29:02;99085.41;;;20.51;46.17
19526;BME280;9907;42.676;26.348;2022-10-31T00:31:29;99076.63;;;20.83;44.97
19526;BME280;9907;42.676;26.348;2022-10-31T00:33:54;99082.09;;;21.03;45.08
19526;BME280;9907;42.676;26.348;2022-10-31T00:36:20;99072.78;;;21.12;44.96
19526;BME280;9907;42.676;26.348;2022-10-31T00:38:47;99081.97;;;21.18;44.89
19526;BME280;9907;42.676;26.348;2022-10-31T00:41:14;99076.34;;;21.19;45.21
19526;BME280;9907;42.676;26.348;2022-10-31T00:43:40;99067.78;;;21.22;44.76
19526;BME280;9907;42.676;26.348;2022-10-31T00:46:06;99073.66;;;21.26;44.53
19526;BME280;9907;42.676;26.348;2022-10-31T00:48:31;99074.94;;;21.30;44.71
19526;BME280;9907;42.676;26.348;2022-10-31T00:50:57;99086.22;;;21.33;44.46
19526;BME280;9907;42.676;26.348;2022-10-31T00:53:22;99074.94;;;21.36;44.42
19526;BME280;9907;42.676;26.348;2022-10-31T00:55:48;99083.75;;;21.39;44.25
19526;BME280;9907;42.676;26.348;2022-10-31T00:58:13;99085.84;;;21.43;44.31
19526;BME280;9907;42.676;26.348;2022-10-31T01:00:39;99088.34;;;21.45;44.59
19526;BME280;9907;42.676;26.348;2022-10-31T01:03:05;99087.91;;;21.48;44.37
19526;BME280;9907;42.676;26.348;2022-10-31T01:05:31;99082.06;;;21.51;44.42
19526;BME280;9907;42.676;26.348;2022-10-31T01:07:56;99078.75;;;21.55;44.00
19526;BME280;9907;42.676;26.348;2022-10-31T01:10:22;99076.03;;;21.62;43.95
19526;BME280;9907;42.676;26.348;2022-10-31T01:12:49;99083.38;;;21.68;44.21
19526;BME280;9907;42.676;26.348;2022-10-31T01:15:20;99089.22;;;21.78;43.73
19526;BME280;9907;42.676;26.348;2022-10-31T01:17:46;99077.97;;;21.88;43.75
19526;BME280;9907;42.676;26.348;2022-10-31T01:20:13;99074.84;;;21.97;42.95
19526;BME280;9907;42.676;26.348;2022-10-31T01:22:39;99076.72;;;22.03;43.33
19526;BME280;9907;42.676;26.348;2022-10-31T01:25:05;99072.94;;;22.11;43.00
19526;BME280;9907;42.676;26.348;2022-10-31T01:27:31;99071.91;;;22.12;43.12
19526;BME280;9907;42.676;26.348;2022-10-31T01:29:57;99077.16;;;22.13;42.90
19526;BME280;9907;42.676;26.348;2022-10-31T01:32:22;99073.16;;;22.16;43.22
19526;BME280;9907;42.676;26.348;2022-10-31T01:34:48;99077.34;;;22.05;43.21
19526;BME280;9907;42.676;26.348;2022-10-31T01:37:13;99076.31;;;22.13;42.97
19526;BME280;9907;42.676;26.348;2022-10-31T01:39:39;99064.16;;;22.15;43.03
19526;BME280;9907;42.676;26.348;2022-10-31T01:42:04;99064.16;;;22.15;43.13
19526;BME280;9907;42.676;26.348;2022-10-31T01:46:59;99070.44;;;22.22;42.95
19526;BME280;9907;42.676;26.348;2022-10-31T01:49:52;99064.16;;;22.22;42.61
19526;BME280;9907;42.676;26.348;2022-10-31T01:54:55;99072.94;;;22.17;42.86
19526;BME280;9907;42.676;26.348;2022-10-31T01:57:23;99069.19;;;22.12;43.03
19526;BME280;9907;42.676;26.348;2022-10-31T01:59:51;99067.50;;;22.11;43.80
19526;BME280;9907;42.676;26.348;2022-10-31T02:02:19;99068.97;;;22.07;43.98
19526;BME280;9907;42.676;26.348;2022-10-31T02:04:45;99069.63;;;22.02;43.90
19526;BME280;9907;42.676;26.348;2022-10-31T02:07:20;99075.88;;;22.03;43.97
19526;BME280;9907;42.676;26.348;2022-10-31T02:09:48;99079.63;;;21.95;43.40
19526;BME280;9907;42.676;26.348;2022-10-31T02:12:15;99072.97;;;21.91;43.07
19526;BME280;9907;42.676;26.348;2022-10-31T02:14:41;99077.97;;;21.88;43.58
19526;BME280;9907;42.676;26.348;2022-10-31T02:17:07;99080.22;;;21.84;44.00
19526;BME280;9907;42.676;26.348;2022-10-31T02:22:40;99076.06;;;21.75;42.89
19526;BME280;9907;42.676;26.348;2022-10-31T02:31:40;99080.47;;;21.76;43.40
19526;BME280;9907;42.676;26.348;2022-10-31T02:33:52;99078.59;;;21.76;43.50
19526;BME280;9907;42.676;26.348;2022-10-31T02:36:27;99086.75;;;21.76;43.14
19526;BME280;9907;42.676;26.348;2022-10-31T02:39:12;99091.72;;;21.73;43.90
19526;BME280;9907;42.676;26.348;2022-10-31T02:42:07;99089.00;;;21.73;43.52
19526;BME280;9907;42.676;26.348;2022-10-31T02:44:59;99096.75;;;21.76;43.42
19526;BME280;9907;42.676;26.348;2022-10-31T02:47:32;99097.19;;;21.79;43.56
19526;BME280;9907;42.676;26.348;2022-10-31T02:50:19;99097.59;;;21.83;43.44
19526;BME280;9907;42.676;26.348;2022-10-31T02:52:50;99099.69;;;21.81;43.68
19526;BME280;9907;42.676;26.348;2022-10-31T02:57:48;99098.22;;;21.78;43.36
19526;BME280;9907;42.676;26.348;2022-10-31T03:00:15;99100.28;;;21.70;43.30
19526;BME280;9907;42.676;26.348;2022-10-31T03:10:57;99112.25;;;21.75;43.46
19526;BME280;9907;42.676;26.348;2022-10-31T03:16:16;99123.28;;;21.61;43.33
19526;BME280;9907;42.676;26.348;2022-10-31T03:21:14;99121.78;;;21.52;43.22
19526;BME280;9907;42.676;26.348;2022-10-31T03:23:44;99127.19;;;21.32;43.77
19526;BME280;9907;42.676;26.348;2022-10-31T03:26:12;99127.16;;;21.25;43.91
19526;BME280;9907;42.676;26.348;2022-10-31T03:28:46;99128.41;;;21.29;43.85
19526;BME280;9907;42.676;26.348;2022-10-31T03:31:17;99133.44;;;21.32;44.06
19526;BME280;9907;42.676;26.348;2022-10-31T03:33:44;99128.44;;;21.36;44.21
19526;BME280;9907;42.676;26.348;2022-10-31T03:36:12;99125.75;;;21.43;43.96
19526;BME280;9907;42.676;26.348;2022-10-31T03:38:41;99129.75;;;21.60;43.65
19526;BME280;9907;42.676;26.348;2022-10-31T03:41:11;99122.88;;;21.77;43.38
19526;BME280;9907;42.676;26.348;2022-10-31T03:43:42;99126.09;;;21.94;43.41
19526;BME280;9907;42.676;26.348;2022-10-31T03:46:11;99129.66;;;21.94;43.15
19526;BME280;9907;42.676;26.348;2022-10-31T03:48:37;99122.09;;;22.03;42.83
19526;BME280;9907;42.676;26.348;2022-10-31T03:51:14;99122.34;;;22.08;42.51
19526;BME280;9907;42.676;26.348;2022-10-31T03:53:57;99114.38;;;22.19;42.46
19526;BME280;9907;42.676;26.348;2022-10-31T03:56:37;99113.53;;;22.25;42.54
19526;BME280;9907;42.676;26.348;2022-10-31T03:59:12;99127.97;;;22.32;42.32
19526;BME280;9907;42.676;26.348;2022-10-31T04:01:42;99139.25;;;22.36;42.01
19526;BME280;9907;42.676;26.348;2022-10-31T04:04:10;99144.94;;;22.35;42.57
19526;BME280;9907;42.676;26.348;2022-10-31T04:06:38;99147.25;;;22.24;42.83
19526;BME280;9907;42.676;26.348;2022-10-31T04:09:06;99147.84;;;22.40;42.24
19526;BME280;9907;42.676;26.348;2022-10-31T04:11:36;99154.75;;;22.49;42.10
19526;BME280;9907;42.676;26.348;2022-10-31T04:14:04;99154.13;;;22.53;41.71
19526;BME280;9907;42.676;26.348;2022-10-31T04:16:31;99169.63;;;22.53;41.70
19526;BME280;9907;42.676;26.348;2022-10-31T04:18:56;99178.00;;;22.51;41.87
19526;BME280;9907;42.676;26.348;2022-10-31T04:21:29;99186.81;;;22.47;41.78
19526;BME280;9907;42.676;26.348;2022-10-31T04:23:55;99183.44;;;22.45;42.17
19526;BME280;9907;42.676;26.348;2022-10-31T04:26:21;99185.75;;;22.41;42.22
19526;BME280;9907;42.676;26.348;2022-10-31T04:28:46;99178.44;;;22.35;42.97
19526;BME280;9907;42.676;26.348;2022-10-31T04:31:14;99185.09;;;22.32;42.75
19526;BME280;9907;42.676;26.348;2022-10-31T04:33:40;99183.03;;;22.28;42.36
19526;BME280;9907;42.676;26.348;2022-10-31T04:36:06;99177.56;;;22.21;42.74
19526;BME280;9907;42.676;26.348;2022-10-31T04:38:31;99184.50;;;22.24;42.69
19526;BME280;9907;42.676;26.348;2022-10-31T04:40:56;99183.84;;;22.22;43.15
19526;BME280;9907;42.676;26.348;2022-10-31T04:43:22;99183.66;;;22.23;42.97
19526;BME280;9907;42.676;26.348;2022-10-31T04:45:48;99194.53;;;22.17;42.41
19526;BME280;9907;42.676;26.348;2022-10-31T04:48:14;99191.59;;;22.05;42.66
19526;BME280;9907;42.676;26.348;2022-10-31T04:50:39;99196.38;;;22.03;42.79
19526;BME280;9907;42.676;26.348;2022-10-31T04:53:05;99202.25;;;22.00;43.37
19526;BME280;9907;42.676;26.348;2022-10-31T04:55:30;99197.03;;;21.99;43.64
19526;BME280;9907;42.676;26.348;2022-10-31T04:57:56;99197.22;;;22.04;43.33
19526;BME280;9907;42.676;26.348;2022-10-31T05:00:22;99208.09;;;22.04;43.41
19526;BME280;9907;42.676;26.348;2022-10-31T05:02:51;99198.06;;;22.04;43.15
19526;BME280;9907;42.676;26.348;2022-10-31T05:05:20;99204.13;;;22.06;42.83
19526;BME280;9907;42.676;26.348;2022-10-31T05:07:47;99209.38;;;22.08;43.34
19526;BME280;9907;42.676;26.348;2022-10-31T05:10:18;99203.94;;;22.08;43.26
19526;BME280;9907;42.676;26.348;2022-10-31T05:12:52;99221.72;;;22.10;43.05
19526;BME280;9907;42.676;26.348;2022-10-31T05:15:19;99237.00;;;22.11;42.58
19526;BME280;9907;42.676;26.348;2022-10-31T05:17:45;99232.81;;;22.15;43.30
19526;BME280;9907;42.676;26.348;2022-10-31T05:20:12;99224.47;;;22.23;43.08
19526;BME280;9907;42.676;26.348;2022-10-31T05:22:50;99236.19;;;22.24;43.48
19526;BME280;9907;42.676;26.348;2022-10-31T05:25:17;99227.81;;;22.25;42.90
19526;BME280;9907;42.676;26.348;2022-10-31T05:27:45;99237.22;;;22.29;43.48
19526;BME280;9907;42.676;26.348;2022-10-31T05:30:13;99243.50;;;22.30;43.51
19526;BME280;9907;42.676;26.348;2022-10-31T05:32:41;99248.97;;;22.30;43.42
19526;BME280;9907;42.676;26.348;2022-10-31T05:35:08;99259.66;;;22.31;43.16
19526;BME280;9907;42.676;26.348;2022-10-31T05:37:35;99257.13;;;22.30;43.68
19526;BME280;9907;42.676;26.348;2022-10-31T05:40:01;99257.13;;;22.30;43.38
19526;BME280;9907;42.676;26.348;2022-10-31T05:42:27;99263.41;;;22.30;43.19
19526;BME280;9907;42.676;26.348;2022-10-31T05:44:52;99256.28;;;22.29;43.24
19526;BME280;9907;42.676;26.348;2022-10-31T05:47:18;99255.00;;;22.12;42.93
19526;BME280;9907;42.676;26.348;2022-10-31T05:49:43;99264.09;;;21.85;44.32
19526;BME280;9907;42.676;26.348;2022-10-31T05:52:09;99267.13;;;21.56;44.10
19526;BME280;9907;42.676;26.348;2022-10-31T05:54:34;99278.50;;;21.31;44.56
19526;BME280;9907;42.676;26.348;2022-10-31T05:57:00;99277.44;;;21.05;44.60
19526;BME280;9907;42.676;26.348;2022-10-31T05:59:25;99274.97;;;20.82;45.54
19526;BME280;9907;42.676;26.348;2022-10-31T06:01:50;99285.88;;;20.61;45.41
19526;BME280;9907;42.676;26.348;2022-10-31T06:04:16;99281.72;;;20.44;45.90
19526;BME280;9907;42.676;26.348;2022-10-31T06:06:41;99287.59;;;20.26;46.20
19526;BME280;9907;42.676;26.348;2022-10-31T06:09:07;99290.34;;;20.11;46.60
19526;BME280;9907;42.676;26.348;2022-10-31T06:11:32;99296.66;;;19.97;47.44
19526;BME280;9907;42.676;26.348;2022-10-31T06:13:58;99297.81;;;19.88;48.32
19526;BME280;9907;42.676;26.348;2022-10-31T06:16:23;99306.91;;;19.80;47.36
19526;BME280;9907;42.676;26.348;2022-10-31T06:18:48;99315.31;;;19.71;48.32
19526;BME280;9907;42.676;26.348;2022-10-31T06:21:14;99313.28;;;19.58;48.24
19526;BME280;9907;42.676;26.348;2022-10-31T06:23:39;99307.97;;;19.50;47.99
19526;BME280;9907;42.676;26.348;2022-10-31T06:26:05;99321.69;;;19.49;48.69
19526;BME280;9907;42.676;26.348;2022-10-31T06:28:30;99310.59;;;19.43;49.15
19526;BME280;9907;42.676;26.348;2022-10-31T06:30:56;99324.84;;;19.37;49.75
19526;BME280;9907;42.676;26.348;2022-10-31T06:33:21;99322.03;;;19.31;49.67
19526;BME280;9907;42.676;26.348;2022-10-31T06:35:47;99313.81;;;19.24;49.45
19526;BME280;9907;42.676;26.348;2022-10-31T06:38:13;99310.19;;;19.32;49.22
19526;BME280;9907;42.676;26.348;2022-10-31T06:40:39;99320.44;;;19.36;49.47
19526;BME280;9907;42.676;26.348;2022-10-31T06:43:04;99316.28;;;19.49;49.30
19526;BME280;9907;42.676;26.348;2022-10-31T06:45:30;99313.00;;;19.68;48.96
19526;BME280;9907;42.676;26.348;2022-10-31T06:47:56;99307.44;;;19.90;48.84
19526;BME280;9907;42.676;26.348;2022-10-31T06:50:22;99303.97;;;20.18;48.03
19526;BME280;9907;42.676;26.348;2022-10-31T06:52:56;99304.16;;;20.52;47.56
19526;BME280;9907;42.676;26.348;2022-10-31T06:55:22;99298.25;;;20.91;47.15
19526;BME280;9907;42.676;26.348;2022-10-31T06:57:53;99292.97;;;21.39;46.66
19526;BME280;9907;42.676;26.348;2022-10-31T07:00:19;99298.16;;;21.81;45.56
19526;BME280;9907;42.676;26.348;2022-10-31T07:03:11;99289.13;;;22.21;45.10
19526;BME280;9907;42.676;26.348;2022-10-31T07:05:36;99285.63;;;22.67;43.71
19526;BME280;9907;42.676;26.348;2022-10-31T07:08:05;99290.03;;;23.07;43.47
19526;BME280;9907;42.676;26.348;2022-10-31T07:10:32;99285.56;;;23.59;42.34
19526;BME280;9907;42.676;26.348;2022-10-31T07:12:59;99279.06;;;24.04;42.00
19526;BME280;9907;42.676;26.348;2022-10-31T07:15:26;99282.22;;;24.46;41.03
19526;BME280;9907;42.676;26.348;2022-10-31T07:17:52;99275.00;;;24.83;40.32
19526;BME280;9907;42.676;26.348;2022-10-31T07:20:18;99285.22;;;24.94;39.65
19526;BME280;9907;42.676;26.348;2022-10-31T07:22:43;99286.84;;;25.01;39.60
19526;BME280;9907;42.676;26.348;2022-10-31T07:25:10;99287.63;;;25.08;39.79
19526;BME280;9907;42.676;26.348;2022-10-31T07:27:39;99295.22;;;25.25;38.27
19526;BME280;9907;42.676;26.348;2022-10-31T07:30:06;99291.78;;;25.54;38.28
19526;BME280;9907;42.676;26.348;2022-10-31T07:32:44;99297.84;;;25.92;38.00
19526;BME280;9907;42.676;26.348;2022-10-31T07:35:12;99296.91;;;26.35;37.32
19526;BME280;9907;42.676;26.348;2022-10-31T07:37:38;99299.66;;;26.88;36.01
19526;BME280;9907;42.676;26.348;2022-10-31T07:40:05;99294.09;;;27.52;35.56
19526;BME280;9907;42.676;26.348;2022-10-31T07:42:42;99288.53;;;28.27;34.29
19526;BME280;9907;42.676;26.348;2022-10-31T07:45:12;99284.97;;;29.22;33.02
19526;BME280;9907;42.676;26.348;2022-10-31T07:47:43;99281.84;;;30.38;31.66
19526;BME280;9907;42.676;26.348;2022-10-31T07:50:11;99277.59;;;31.53;30.07
19526;BME280;9907;42.676;26.348;2022-10-31T07:52:37;99275.47;;;32.32;29.03
19526;BME280;9907;42.676;26.348;2022-10-31T07:55:03;99278.59;;;33.02;28.52
19526;BME280;9907;42.676;26.348;2022-10-31T07:57:29;99271.78;;;33.94;27.56
19526;BME280;9907;42.676;26.348;2022-10-31T07:59:54;99272.38;;;34.84;25.75
19526;BME280;9907;42.676;26.348;2022-10-31T08:02:20;99273.78;;;35.44;25.76
19526;BME280;9907;42.676;26.348;2022-10-31T08:04:45;99276.97;;;36.27;24.64
19526;BME280;9907;42.676;26.348;2022-10-31T08:07:10;99273.31;;;37.20;24.16
19526;BME280;9907;42.676;26.348;2022-10-31T08:09:36;99279.69;;;37.67;23.54
19526;BME280;9907;42.676;26.348;2022-10-31T08:12:01;99276.13;;;37.47;23.63
19526;BME280;9907;42.676;26.348;2022-10-31T08:14:27;99280.84;;;37.66;23.50
19526;BME280;9907;42.676;26.348;2022-10-31T08:16:55;99285.81;;;38.10;22.45
19526;BME280;9907;42.676;26.348;2022-10-31T08:19:21;99288.63;;;36.67;23.53
19526;BME280;9907;42.676;26.348;2022-10-31T08:21:50;99297.94;;;33.42;26.19
19526;BME280;9907;42.676;26.348;2022-10-31T08:24:16;99301.41;;;30.64;29.62
19526;BME280;9907;42.676;26.348;2022-10-31T08:26:41;99307.00;;;28.88;31.81
19526;BME280;9907;42.676;26.348;2022-10-31T08:29:07;99306.50;;;27.55;33.99
19526;BME280;9907;42.676;26.348;2022-10-31T08:31:32;99308.16;;;26.56;35.50
19526;BME280;9907;42.676;26.348;2022-10-31T08:33:58;99317.09;;;25.86;36.05
19526;BME280;9907;42.676;26.348;2022-10-31T08:36:23;99304.53;;;25.42;36.89
19526;BME280;9907;42.676;26.348;2022-10-31T08:38:48;99315.44;;;24.99;37.74
19526;BME280;9907;42.676;26.348;2022-10-31T08:41:14;99307.03;;;24.69;38.59
19526;BME280;9907;42.676;26.348;2022-10-31T08:43:39;99320.25;;;24.41;38.58
19526;BME280;9907;42.676;26.348;2022-10-31T08:46:05;99310.50;;;24.20;39.50
19526;BME280;9907;42.676;26.348;2022-10-31T08:48:31;99315.25;;;23.87;40.05
19526;BME280;9907;42.676;26.348;2022-10-31T08:50:58;99330.47;;;22.84;41.14
19526;BME280;9907;42.676;26.348;2022-10-31T08:53:24;99325.25;;;22.83;42.13
19526;BME280;9907;42.676;26.348;2022-10-31T08:55:50;99325.25;;;22.83;41.90
19526;BME280;9907;42.676;26.348;2022-10-31T08:58:17;99327.56;;;22.79;42.31
19526;BME280;9907;42.676;26.348;2022-10-31T09:00:44;99325.88;;;22.78;41.73
19526;BME280;9907;42.676;26.348;2022-10-31T09:03:25;99325.88;;;22.78;42.38
19526;BME280;9907;42.676;26.348;2022-10-31T09:05:55;99321.91;;;22.67;42.22
19526;BME280;9907;42.676;26.348;2022-10-31T09:08:21;99330.66;;;22.63;42.77
19526;BME280;9907;42.676;26.348;2022-10-31T09:10:47;99316.38;;;22.54;42.39
19526;BME280;9907;42.676;26.348;2022-10-31T09:13:15;99316.63;;;22.46;43.63
19526;BME280;9907;42.676;26.348;2022-10-31T09:15:42;99318.91;;;22.43;43.56
19526;BME280;9907;42.676;26.348;2022-10-31T09:18:09;99309.47;;;22.39;43.12
19526;BME280;9907;42.676;26.348;2022-10-31T09:20:36;99308.22;;;22.35;43.56
19526;BME280;9907;42.676;26.348;2022-10-31T09:23:19;99309.44;;;22.32;44.06
19526;BME280;9907;42.676;26.348;2022-10-31T09:25:48;99301.50;;;22.30;43.77
19526;BME280;9907;42.676;26.348;2022-10-31T09:28:15;99318.00;;;22.16;43.95
19526;BME280;9907;42.676;26.348;2022-10-31T09:30:41;99310.63;;;22.10;44.05
19526;BME280;9907;42.676;26.348;2022-10-31T09:33:10;99302.94;;;22.13;43.56
19526;BME280;9907;42.676;26.348;2022-10-31T09:35:36;99306.28;;;22.15;43.67
19526;BME280;9907;42.676;26.348;2022-10-31T09:38:08;99303.56;;;22.15;43.91
19526;BME280;9907;42.676;26.348;2022-10-31T09:40:37;99301.88;;;22.14;44.48
19526;BME280;9907;42.676;26.348;2022-10-31T09:43:13;99306.28;;;22.15;45.10
19526;BME280;9907;42.676;26.348;2022-10-31T09:51:35;99303.78;;;22.20;45.70
19526;BME280;9907;42.676;26.348;2022-10-31T09:54:08;99302.34;;;22.24;45.19
19526;BME280;9907;42.676;26.348;2022-10-31T09:56:36;99297.09;;;22.29;45.59
19526;BME280;9907;42.676;26.348;2022-10-31T09:59:05;99293.56;;;22.36;45.43
19526;BME280;9907;42.676;26.348;2022-10-31T10:01:56;99298.13;;;22.28;45.21
19526;BME280;9907;42.676;26.348;2022-10-31T10:26:42;99282.28;;;22.52;43.33
19526;BME280;9907;42.676;26.348;2022-10-31T10:29:18;99281.22;;;22.46;43.53
19526;BME280;9907;42.676;26.348;2022-10-31T10:31:48;99281.84;;;22.42;44.10
19526;BME280;9907;42.676;26.348;2022-10-31T10:34:25;99275.13;;;22.38;43.42
19526;BME280;9907;42.676;26.348;2022-10-31T10:36:57;99274.28;;;22.44;43.28
19526;BME280;9907;42.676;26.348;2022-10-31T10:39:30;99278.69;;;22.45;43.84
19526;BME280;9907;42.676;26.348;2022-10-31T10:41:57;99272.41;;;22.44;44.25
19526;BME280;9907;42.676;26.348;2022-10-31T10:44:47;99275.13;;;22.44;45.36
19526;BME280;9907;42.676;26.348;2022-10-31T10:47:44;99269.28;;;22.41;44.67
19526;BME280;9907;42.676;26.348;2022-10-31T10:50:22;99272.19;;;22.32;44.04
19526;BME280;9907;42.676;26.348;2022-10-31T10:55:39;99265.06;;;22.25;44.05
19526;BME280;9907;42.676;26.348;2022-10-31T10:58:07;99272.41;;;22.31;43.83
19526;BME280;9907;42.676;26.348;2022-10-31T11:00:41;99268.84;;;22.30;43.13
19526;BME280;9907;42.676;26.348;2022-10-31T11:03:09;99264.03;;;22.32;44.05
19526;BME280;9907;42.676;26.348;2022-10-31T11:05:42;99261.53;;;22.38;44.09
19526;BME280;9907;42.676;26.348;2022-10-31T11:08:10;99259.00;;;22.23;42.96
19526;BME280;9907;42.676;26.348;2022-10-31T11:10:37;99262.34;;;22.25;43.39
19526;BME280;9907;42.676;26.348;2022-10-31T11:16:09;99256.69;;;22.40;42.44
19526;BME280;9907;42.676;26.348;2022-10-31T11:18:44;99259.44;;;22.40;43.84
19526;BME280;9907;42.676;26.348;2022-10-31T11:21:25;99255.06;;;22.39;43.45
19526;BME280;9907;42.676;26.348;2022-10-31T11:26:40;99247.91;;;22.24;43.12
19526;BME280;9907;42.676;26.348;2022-10-31T11:29:21;99249.75;;;22.17;42.73
19526;BME280;9907;42.676;26.348;2022-10-31T11:31:47;99248.53;;;22.13;43.05
19526;BME280;9907;42.676;26.348;2022-10-31T11:34:36;99246.63;;;22.14;43.33
19526;BME280;9907;42.676;26.348;2022-10-31T11:37:13;99235.13;;;22.18;43.88
19526;BME280;9907;42.676;26.348;2022-10-31T11:39:44;99241.00;;;22.22;42.99
19526;BME280;9907;42.676;26.348;2022-10-31T11:42:11;99244.56;;;22.22;43.11
19526;BME280;9907;42.676;26.348;2022-10-31T11:44:41;99231.59;;;22.24;42.90
19526;BME280;9907;42.676;26.348;2022-10-31T11:47:12;99232.81;;;22.28;43.09
19526;BME280;9907;42.676;26.348;2022-10-31T11:49:41;99241.22;;;22.33;43.34
19526;BME280;9907;42.676;26.348;2022-10-31T11:52:13;99238.72;;;22.39;43.37
19526;BME280;9907;42.676;26.348;2022-10-31T11:59:53;99233.91;;;22.41;42.52
19526;BME280;9907;42.676;26.348;2022-10-31T12:02:20;99231.16;;;22.41;42.71
19526;BME280;9907;42.676;26.348;2022-10-31T12:04:51;99235.56;;;22.35;42.54
19526;BME280;9907;42.676;26.348;2022-10-31T12:07:19;99242.06;;;22.34;42.84
19526;BME280;9907;42.676;26.348;2022-10-31T12:09:44;99243.72;;;22.28;42.74
19526;BME280;9907;42.676;26.348;2022-10-31T12:12:21;99236.38;;;22.29;43.03
19526;BME280;9907;42.676;26.348;2022-10-31T12:17:25;99222.16;;;22.33;43.31
19526;BME280;9907;42.676;26.348;2022-10-31T12:22:46;99231.16;;;22.41;42.95
19526;BME280;9907;42.676;26.348;2022-10-31T12:25:23;99234.09;;;22.19;42.65
19526;BME280;9907;42.676;26.348;2022-10-31T12:30:28;99214.19;;;22.12;42.52
19526;BME280;9907;42.676;26.348;2022-10-31T12:47:11;99231.56;;;22.11;43.52
19526;BME280;9907;42.676;26.348;2022-10-31T12:57:44;99232.81;;;22.22;43.09
19526;BME280;9907;42.676;26.348;2022-10-31T13:00:18;99234.94;;;22.20;43.11
19526;BME280;9907;42.676;26.348;2022-10-31T13:02:51;99235.97;;;22.19;42.53
19526;BME280;9907;42.676;26.348;2022-10-31T13:05:44;99239.09;;;22.22;43.22
19526;BME280;9907;42.676;26.348;2022-10-31T13:08:20;99243.72;;;22.15;43.00
19526;BME280;9907;42.676;26.348;2022-10-31T13:11:05;99242.44;;;22.11;42.95
19526;BME280;9907;42.676;26.348;2022-10-31T13:13:41;99242.44;;;22.05;43.05
19526;BME280;9907;42.676;26.348;2022-10-31T13:16:22;99246.41;;;22.02;43.54
19526;BME280;9907;42.676;26.348;2022-10-31T13:18:54;99247.03;;;21.98;43.66
19526;BME280;9907;42.676;26.348;2022-10-31T13:21:27;99242.81;;;21.95;43.36
19526;BME280;9907;42.676;26.348;2022-10-31T13:23:58;99236.94;;;21.92;43.47
19526;BME280;9907;42.676;26.348;2022-10-31T13:26:45;99244.44;;;21.90;44.02
19526;BME280;9907;42.676;26.348;2022-10-31T13:29:32;99248.63;;;21.85;43.52
19526;BME280;9907;42.676;26.348;2022-10-31T13:32:05;99250.91;;;21.82;43.80
19526;BME280;9907;42.676;26.348;2022-10-31T13:40:07;99250.06;;;21.75;44.58
19526;BME280;9907;42.676;26.348;2022-10-31T13:42:53;99249.41;;;21.73;44.40
19526;BME280;9907;42.676;26.348;2022-10-31T13:45:22;99256.94;;;21.71;44.40
19526;BME280;9907;42.676;26.348;2022-10-31T13:50:40;99253.97;;;21.66;44.56
19526;BME280;9907;42.676;26.348;2022-10-31T13:53:19;99249.59;;;21.65;44.10
19526;BME280;9907;42.676;26.348;2022-10-31T13:55:50;99253.97;;;21.66;44.60
19526;BME280;9907;42.676;26.348;2022-10-31T13:58:31;99254.38;;;21.63;44.61
19526;BME280;9907;42.676;26.348;2022-10-31T14:01:21;99260.22;;;21.60;44.96
19526;BME280;9907;42.676;26.348;2022-10-31T14:03:59;99261.25;;;21.59;44.74
19526;BME280;9907;42.676;26.348;2022-10-31T14:06:52;99262.72;;;21.55;44.48
19526;BME280;9907;42.676;26.348;2022-10-31T14:09:31;99266.88;;;21.51;45.17
19526;BME280;9907;42.676;26.348;2022-10-31T14:12:14;99266.44;;;21.47;45.16
19526;BME280;9907;42.676;26.348;2022-10-31T14:14:49;99269.16;;;21.47;44.70
19526;BME280;9907;42.676;26.348;2022-10-31T14:17:22;99267.28;;;21.48;45.08
19526;BME280;9907;42.676;26.348;2022-10-31T14:20:21;99273.78;;;21.47;45.29
19526;BME280;9907;42.676;26.348;2022-10-31T14:22:47;99273.34;;;21.43;45.07
19526;BME280;9907;42.676;26.348;2022-10-31T14:25:35;99278.31;;;21.40;45.09
19526;BME280;9907;42.676;26.348;2022-10-31T14:28:18;99274.34;;;21.35;44.98
19526;BME280;9907;42.676;26.348;2022-10-31T14:30:52;99280.81;;;21.34;45.17
19526;BME280;9907;42.676;26.348;2022-10-31T14:33:19;99275.78;;;21.31;45.04
19526;BME280;9907;42.676;26.348;2022-10-31T14:36:01;99281.81;;;21.27;45.55
19526;BME280;9907;42.676;26.348;2022-10-31T14:38:31;99278.25;;;21.26;46.00
19526;BME280;9907;42.676;26.348;2022-10-31T14:41:18;99283.06;;;21.24;45.78
19526;BME280;9907;42.676;26.348;2022-10-31T14:46:40;99281.13;;;21.18;46.27
19526;BME280;9907;42.676;26.348;2022-10-31T14:49:27;99280.91;;;21.13;46.30
19526;BME280;9907;42.676;26.348;2022-10-31T14:51:57;99289.78;;;21.07;46.26
19526;BME280;9907;42.676;26.348;2022-10-31T14:57:00;99299.97;;;20.99;46.52
19526;BME280;9907;42.676;26.348;2022-10-31T14:59:31;99292.41;;;20.94;47.03
19526;BME280;9907;42.676;26.348;2022-10-31T15:04:39;99299.00;;;20.85;46.25
19526;BME280;9907;42.676;26.348;2022-10-31T15:07:11;99295.22;;;20.79;47.35
19526;BME280;9907;42.676;26.348;2022-10-31T15:09:39;99301.41;;;20.73;47.68
19526;BME280;9907;42.676;26.348;2022-10-31T15:12:28;99308.09;;;20.71;46.93
19526;BME280;9907;42.676;26.348;2022-10-31T15:14:54;99310.34;;;20.67;47.46